Tiempo atmosférico en la estación meteorológica de San Bartolome Tirajana, Lomo Pedro Alfonso, Las Palmas (806 m.)



Fecha
DESCASC
Temp. máxima en grados centígrados (hora)
DESCASC
Temp. mínima en grados centígrados (hora)
DESCASC
Temp. media en grados centígrados
DESCASC
Racha de viento máxima en m/sg (hora)
DESCASC
Velocidad máxima media en intervalos de 10 minutos(hora)
DESCASC
Precipitaciones diarias en mm
DESCASC
Precipitaciones de 00:00 a 06:00 en mm
DESCASC
Precipitaciones de 06:00 a 12:00 en mm
DESCASC
Precipitaciones de 12:00 a 18:00 en mm
DESCASC
Precipitaciones de 18:00 a 24:00 en mm
DESCASC
29-10-2020 22.7 (15:40) 13.6 (06:50) 18.2 5.83 (13:30) 3.33 (16:10) 0 0 0 0 0
28-10-2020 20.9 (16:20) 14.4 (05:00) 17.6 7.78 (14:10) 4.17 (14:40) 0 0 0 0 0
27-10-2020 20.2 (13:00) 13.9 (00:00) 17.1 6.11 (14:10) 3.33 (14:10) 0 0 0 0 0
26-10-2020 22.9 (14:10) 14.6 (00:00) 18.8 5.83 (15:10) 3.33 (15:40) 0 0 0 0 0
25-10-2020 23.2 (13:50) 15.1 (00:00) 19.2 5 (13:00) 2.78 (00:30) 0 0 0 0 0
24-10-2020 22.2 (15:30) 12.6 (00:00) 17.4 6.94 (17:10) 3.61 (14:30) 0 0 0 0 0
23-10-2020 21.6 (16:10) 13 (00:00) 17.3 8.61 (15:10) 4.17 (16:20) 0 0 0 0 0
22-10-2020 21.2 (15:50) 13.6 (00:00) 17.4 7.78 (16:10) 4.17 (16:00) 0.4 0.2 0 0.2 0
21-10-2020 20.2 (13:30) 15.1 (00:00) 17.7 7.78 (13:30) 5 (12:50) 14.8 0 0 1 13.8
20-10-2020 23.2 (12:40) 17.3 (00:00) 20.3 23.06 (11:20) 11.11 (11:20) 0 0 0 0 0
19-10-2020 27.6 (16:00) 17.4 (00:00) 22.5 10 (17:40) 5.83 (17:30) 0 0 0 0 0
18-10-2020 20.2 (15:30) 13.9 (00:00) 17.1 5.56 (14:30) 3.33 (14:30) 0 0 0 0 0
17-10-2020 19.1 (14:30) 14.8 (00:00) 17 5.83 (13:20) 3.61 (14:30) 0 0 0 0 0
16-10-2020 24.2 (15:20) 15.5 (00:00) 19.9 8.61 (16:30) 4.17 (16:20) 0 0 0 0 0
15-10-2020 26.1 (14:00) 16.5 (00:00) 21.3 5.83 (15:20) 3.33 (15:30) 0 0 0 0 0
14-10-2020 30.4 (16:00) 20.9 (00:00) 25.6 5.83 (10:40) 3.33 (05:10) 0 0 0 0 0
13-10-2020 31.7 (16:30) 25.1 (00:00) 28.4 9.17 (02:40) 6.67 (02:40) 0 0 0 0 0
12-10-2020 33.4 (16:10) 26.7 (00:00) 30.1 12.5 (09:10) 8.06 (08:50) 0 0 0 0 0
11-10-2020 30.4 (16:30) 19.3 (00:00) 24.8 6.39 (13:10) 4.17 (08:10) 0 0 0 0 0
10-10-2020 26.6 (16:40) 16.9 (00:00) 21.8 6.39 (13:00) 3.06 (12:50) 0 0 0 0 0
09-10-2020 26.5 (17:50) 20.6 (00:00) 23.6 6.39 (14:30) 3.33 (16:00) 0 0 0 0 0
08-10-2020 28.8 (15:20) 21.2 (00:00) 25 6.94 (14:00) 3.33 (18:20) 0 0 0 0 0
07-10-2020 28.7 (17:10) 20.8 (00:00) 24.8 5.28 (15:00) 2.78 (17:10) 0 0 0 0 0
06-10-2020 22.5 (23:59) 16.5 (00:00) 19.5 6.39 (16:10) 4.72 (16:10) 0.8 0 0.2 0.6 0
05-10-2020 25.2 (15:30) 14.8 (00:00) 20 6.94 (15:30) 3.89 (15:10) 0 0 0 0 0
04-10-2020 23.6 (15:10) 16.1 (00:00) 19.9 6.67 (15:00) 4.44 (16:10) 0 0 0 0 0
03-10-2020 24 (17:20) 14.8 (00:00) 19.4 6.67 (17:30) 3.89 (17:20) 0 0 0 0 0
02-10-2020 24.9 (16:00) 14.9 (00:00) 19.9 6.94 (14:40) 3.89 (16:50) 0 0 0 0 0
01-10-2020 24.5 (17:20) 15.4 (00:00) 19.9 6.67 (14:50) 3.89 (18:00) 0 0 0 0 0

Gráficas

Temp. máximas Temp. mínimas Temp. medias Precipitaciones Rachas de viento máximas Velocidades máximas media en intervalos de 10 minutos

Datos horarios

Fecha y hora oficial Temperatura (ºC) Velocidad del viento (km/h) Dirección del viento Racha (km/h) Dirección de racha Precipitación (mm) Presión (hPa) Tendencia (hPa) Humedad (%)
2020-10-30 23:00:00 23.7 20 Nordeste 32 Norte 0 -- -- 22
2020-10-30 22:00:00 23.6 13 Nordeste 32 Nordeste 0 -- -- 21
2020-10-30 21:00:00 23.5 15 Nordeste 32 Nordeste 0 -- -- 20
2020-10-30 20:00:00 23.1 13 Nordeste 32 Norte 0 -- -- 21
2020-10-30 19:00:00 22.5 14 Nordeste 33 Norte 0 -- -- 23
2020-10-30 18:00:00 22.6 23 Norte 34 Norte 0 -- -- 27
2020-10-30 17:00:00 23.2 7 Oeste 14 Sudoeste 0 -- -- 59
2020-10-30 16:00:00 23.5 5 Norte 17 Sur 0 -- -- 62
2020-10-30 15:00:00 24.3 8 Sudoeste 18 Sudoeste 0 -- -- 61
2020-10-30 14:00:00 24.1 8 Sudoeste 23 Sudoeste 0 -- -- 60
2020-10-30 13:00:00 23.2 5 Oeste 16 Oeste 0 -- -- 63
2020-10-30 12:00:00 22.4 4 Oeste 9 Sudoeste 0 -- -- 63
2020-10-30 11:00:00 21.2 3 Norte 12 Sur 0 -- -- 62
2020-10-30 10:00:00 19.6 8 Sur 15 Este 0 -- -- 64
2020-10-30 09:00:00 17 2 Sur 13 Este 0 -- -- 52
2020-10-30 08:00:00 17.2 5 Este 13 Nordeste 0 -- -- 47
2020-10-30 07:00:00 15 3 Nordeste 5 Nordeste 0 -- -- 64
2020-10-30 06:00:00 14.4 2 Nordeste 10 Este 0 -- -- 73
2020-10-30 05:00:00 14.4 3 Este 8 Sudeste 0 -- -- 78
2020-10-30 04:00:00 13.5 2 Nordeste 10 Sur 0 -- -- 94
2020-10-30 03:00:00 13.6 7 Sur 9 Sur 0 -- -- 89
2020-10-30 02:00:00 14 0 Calma 3 Nordeste 0 -- -- 94
2020-10-30 01:00:00 14.5 0 Calma 4 Nordeste 0 -- -- 92
2020-10-30 00:00:00 14.6 2 Norte 13 Este 0 -- -- 90
2020-10-29 23:00:00 14.6 0 Calma 6 Norte 0 -- -- 92
2020-10-29 22:00:00 14.8 3 Este 6 Nordeste 0 -- -- 90
2020-10-29 21:00:00 15.3 0 Calma 5 Nordeste 0 -- -- 88
2020-10-29 20:00:00 15.9 3 Norte 6 Oeste 0 -- -- 84
2020-10-29 19:00:00 17 4 Oeste 13 Oeste 0 -- -- 80
2020-10-29 18:00:00 19.8 8 Oeste 21 Oeste 0 -- -- 68
2020-10-29 17:00:00 21.4 11 Oeste 19 Sudoeste 0 -- -- 63
2020-10-29 16:00:00 21.8 12 Sudoeste 19 Oeste 0 -- -- 60
2020-10-29 15:00:00 21.5 9 Sudoeste 20 Sur 0 -- -- 61
2020-10-29 14:00:00 22.5 10 Oeste 21 Oeste 0 -- -- 59
2020-10-29 13:00:00 21.3 10 Oeste 17 Oeste 0 -- -- 62
2020-10-29 12:00:00 20.1 9 Sudoeste 19 Oeste 0 -- -- 64
2020-10-29 11:00:00 19.2 5 Oeste 14 Oeste 0 -- -- 63
2020-10-29 10:00:00 16.8 5 Sudoeste 9 Sudoeste 0 -- -- 72
2020-10-29 09:00:00 15 3 Noroeste 10 Norte 0 -- -- 79
2020-10-29 08:00:00 13.9 4 Noroeste 6 Noroeste 0 -- -- 85
2020-10-29 07:00:00 13.6 0 Calma 4 Noroeste 0 -- -- 83
2020-10-29 06:00:00 14.2 0 Calma 10 Sudoeste 0 -- -- 81
2020-10-29 05:00:00 14.6 4 Oeste 8 Oeste 0 -- -- 81
2020-10-29 04:00:00 14.7 3 Noroeste 10 Norte 0 -- -- 81
2020-10-29 03:00:00 14.9 4 Sudoeste 10 Sudoeste 0 -- -- 81
2020-10-29 02:00:00 15.2 5 Oeste 11 Sudoeste 0 -- -- 83
2020-10-29 01:00:00 15.3 5 Oeste 8 Sudoeste 0 -- -- 83
2020-10-29 00:00:00 15.3 5 Sur 10 Sudoeste 0 -- -- 84
2020-10-28 23:00:00 15.6 4 Oeste 10 Sudoeste 0 -- -- 82
2020-10-28 22:00:00 15.7 6 Oeste 12 Sudoeste 0 -- -- 82
2020-10-28 21:00:00 15.8 4 Oeste 9 Sudoeste 0 -- -- 83
2020-10-28 20:00:00 16 3 Sudoeste 10 Oeste 0 -- -- 82
2020-10-28 19:00:00 16.4 7 Oeste 15 Oeste 0 -- -- 79
2020-10-28 18:00:00 17.8 6 Oeste 16 Oeste 0 -- -- 73
2020-10-28 17:00:00 19.1 9 Oeste 22 Oeste 0 -- -- 68
2020-10-28 16:00:00 20.2 12 Oeste 28 Oeste 0 -- -- 66
2020-10-28 15:00:00 19.8 14 Oeste 28 Oeste 0 -- -- 66
2020-10-28 14:00:00 19.9 14 Oeste 27 Oeste 0 -- -- 65
2020-10-28 13:00:00 20 12 Oeste 24 Oeste 0 -- -- 64
2020-10-28 12:00:00 19.4 11 Oeste 21 Sudoeste 0 -- -- 65
2020-10-28 11:00:00 17 8 Oeste 17 Oeste 0 -- -- 72
2020-10-28 10:00:00 15.9 4 Oeste 9 Oeste 0 -- -- 75
2020-10-28 09:00:00 15.3 2 Oeste 5 Sudoeste 0 -- -- 77
2020-10-28 08:00:00 15 2 Norte 6 Norte 0 -- -- 80
2020-10-28 07:00:00 14.5 2 Sudoeste 6 Noroeste 0 -- -- 82
2020-10-28 06:00:00 14.6 3 Oeste 10 Oeste 0 -- -- 82
2020-10-28 05:00:00 14.4 3 Oeste 10 Oeste 0 -- -- 80
2020-10-28 04:00:00 14.9 5 Oeste 13 Oeste 0 -- -- 83
2020-10-28 03:00:00 15.3 4 Oeste 14 Oeste 0 -- -- 91
2020-10-28 02:00:00 15.4 8 Sudoeste 14 Oeste 0 -- -- 91
2020-10-28 01:00:00 15.6 6 Oeste 13 Sudoeste 0 -- -- 91
2020-10-28 00:00:00 15.7 6 Sudoeste 18 Oeste 0 -- -- 90
2020-10-27 23:00:00 15.9 6 Oeste 13 Oeste 0 -- -- 90
2020-10-27 22:00:00 16 6 Oeste 13 Oeste 0 -- -- 89
2020-10-27 21:00:00 16.2 6 Oeste 14 Sudoeste 0 -- -- 88
2020-10-27 20:00:00 16.4 10 Oeste 19 Oeste 0 -- -- 87
2020-10-27 19:00:00 16.9 6 Oeste 18 Noroeste 0 -- -- 85
2020-10-27 18:00:00 17.9 9 Oeste 19 Sudoeste 0 -- -- 80
2020-10-27 17:00:00 18.9 10 Oeste 21 Oeste 0 -- -- 77
2020-10-27 16:00:00 19.6 10 Oeste 21 Noroeste 0 -- -- 75
2020-10-27 15:00:00 19.1 9 Oeste 22 Sur 0 -- -- 76
2020-10-27 14:00:00 19.5 12 Sudoeste 19 Oeste 0 -- -- 74
2020-10-27 13:00:00 20.2 10 Oeste 20 Oeste 0 -- -- 71
2020-10-27 12:00:00 19.9 10 Oeste 18 Oeste 0 -- -- 72
2020-10-27 11:00:00 18.5 5 Oeste 8 Oeste 0 -- -- 75
2020-10-27 10:00:00 16.3 2 Sudoeste 7 Sudoeste 0 -- -- 85
2020-10-27 09:00:00 14.6 0 Calma 6 Oeste 0 -- -- 92
2020-10-27 08:00:00 14.1 5 Noroeste 12 Noroeste 0 -- -- 93
2020-10-27 07:00:00 13.9 4 Sudoeste 8 Norte 0 -- -- 93
2020-10-27 06:00:00 14 4 Noroeste 8 Noroeste 0 -- -- 93
2020-10-27 05:00:00 14.4 0 Calma 4 Sudoeste 0 -- -- 93
2020-10-27 04:00:00 14.6 2 Sudeste 4 Sudeste 0 -- -- 91
2020-10-27 03:00:00 15.1 0 Calma 4 Nordeste 0 -- -- 90
2020-10-27 02:00:00 15.8 0 Calma 8 Oeste 0 -- -- 90
2020-10-27 01:00:00 16.1 5 Oeste 8 Oeste 0 -- -- 91
2020-10-27 00:00:00 16.2 0 Calma 8 Noroeste 0 -- -- 91
2020-10-26 23:00:00 16.1 3 Noroeste 12 Sur 0 -- -- 91
2020-10-26 22:00:00 16.2 3 Noroeste 8 Sur 0 -- -- 91
2020-10-26 21:00:00 16 3 Sudoeste 8 Sur 0 -- -- 90
2020-10-26 20:00:00 16.9 3 Noroeste 7 Oeste 0 -- -- 84
2020-10-26 19:00:00 18.3 0 Calma 9 Oeste 0 -- -- 79
2020-10-26 18:00:00 20.2 4 Oeste 14 Sudeste 0 -- -- 73
2020-10-26 17:00:00 21.5 7 Oeste 19 Oeste 0 -- -- 70
2020-10-26 16:00:00 22.3 12 Oeste 21 Oeste 0 -- -- 68
2020-10-26 15:00:00 22.4 10 Oeste 20 Oeste 0 -- -- 68
2020-10-26 14:00:00 22.8 9 Oeste 18 Oeste 0 -- -- 67
2020-10-26 13:00:00 21.7 8 Oeste 15 Oeste 0 -- -- 71
2020-10-26 12:00:00 21.1 7 Oeste 14 Oeste 0 -- -- 74
2020-10-26 11:00:00 19.1 3 Noroeste 7 Noroeste 0 -- -- 78
2020-10-26 10:00:00 16.7 0 Calma 8 Sudoeste 0 -- -- 89
2020-10-26 09:00:00 14.9 0 Calma 10 Sur 0 -- -- 92
2020-10-26 08:00:00 15.1 0 Calma 6 Norte 0 -- -- 84
2020-10-26 07:00:00 14.7 0 Calma 8 Sur 0 -- -- 82
2020-10-26 06:00:00 16 2 Nordeste 6 Sudoeste 0 -- -- 68
2020-10-26 05:00:00 14.6 2 Norte 6 Sur 0 -- -- 93
2020-10-26 04:00:00 15 0 Calma 9 Nordeste 0 -- -- 90
2020-10-26 03:00:00 15.2 3 Sur 8 Este 0 -- -- 91
2020-10-26 02:00:00 16.1 3 Nordeste 6 Este 0 -- -- 83
2020-10-26 01:00:00 16.6 3 Sur 6 Oeste 0 -- -- 82
2020-10-26 00:00:00 16.1 0 Calma 7 Nordeste 0 -- -- 84
2020-10-25 23:00:00 16 4 Oeste 7 Oeste 0 -- -- 91
2020-10-25 22:00:00 16.3 3 Nordeste 12 Sudoeste 0 -- -- 90
2020-10-25 21:00:00 16.6 4 Oeste 8 Oeste 0 -- -- 87
2020-10-25 20:00:00 17.2 3 Sudoeste 10 Sudeste 0 -- -- 85
2020-10-25 19:00:00 17.8 2 Norte 7 Oeste 0 -- -- 82
2020-10-25 18:00:00 18.9 4 Oeste 11 Oeste 0 -- -- 77
2020-10-25 17:00:00 21.2 5 Oeste 18 Oeste 0 -- -- 69
2020-10-25 16:00:00 22.3 9 Oeste 18 Oeste 0 -- -- 67
2020-10-25 15:00:00 21.3 8 Oeste 17 Oeste 0 -- -- 70
2020-10-25 14:00:00 23.1 8 Oeste 15 Oeste 0 -- -- 65
2020-10-25 13:00:00 22.7 7 Oeste 18 Sudoeste 0 -- -- 66
2020-10-25 12:00:00 21.9 4 Oeste 11 Sur 0 -- -- 65
2020-10-25 11:00:00 20.5 5 Sudoeste 13 Sur 0 -- -- 65
2020-10-25 10:00:00 18.6 0 Calma 5 Sur 0 -- -- 54
2020-10-25 09:00:00 16.9 0 Calma 7 Sur 0 -- -- 60
2020-10-25 08:00:00 16.3 0 Calma 11 Este 0 -- -- 28
2020-10-25 07:00:00 15.8 3 Nordeste 10 Este 0 -- -- 55
2020-10-25 06:00:00 15.5 4 Nordeste 8 Nordeste 0 -- -- 61
2020-10-25 05:00:00 16.9 0 Calma 5 Nordeste 0 -- -- 31
2020-10-25 04:00:00 15.1 3 Nordeste 8 Sur 0 -- -- 61
2020-10-25 03:00:00 17.4 0 Calma 6 Este 0 -- -- 41
2020-10-25 02:00:00 16.5 0 Calma 10 Sur 0 -- -- 52
2020-10-25 01:00:00 18.3 3 Nordeste 7 Nordeste 0 -- -- 39
2020-10-25 00:00:00 15.1 0 Calma 11 Nordeste 0 -- -- 86
2020-10-24 23:00:00 16.1 3 Sudeste 7 Sudoeste 0 -- -- 80
2020-10-24 22:00:00 16.1 5 Nordeste 9 Nordeste 0 -- -- 79
2020-10-24 21:00:00 16.1 0 Calma 5 Oeste 0 -- -- 81
2020-10-24 20:00:00 16.7 3 Sudoeste 8 Oeste 0 -- -- 79
2020-10-24 19:00:00 18 4 Noroeste 13 Sudoeste 0 -- -- 73
2020-10-24 18:00:00 19.7 6 Oeste 25 Oeste 0 -- -- 67
2020-10-24 17:00:00 21.5 10 Oeste 22 Oeste 0 -- -- 61
2020-10-24 16:00:00 22.1 12 Oeste 23 Oeste 0 -- -- 59
2020-10-24 15:00:00 21.5 10 Oeste 23 Oeste 0 -- -- 59
2020-10-24 14:00:00 19.8 6 Oeste 19 Oeste 0 -- -- 62
2020-10-24 13:00:00 19.3 7 Oeste 16 Oeste 0 -- -- 58
2020-10-24 12:00:00 17.3 3 Sudoeste 9 Sudoeste 0 -- -- 51
2020-10-24 11:00:00 15.7 3 Sudeste 10 Nordeste 0 -- -- 66
2020-10-24 10:00:00 14.3 0 Calma 8 Nordeste 0 -- -- 46
2020-10-24 09:00:00 13 3 Nordeste 9 Nordeste 0 -- -- 76
2020-10-24 08:00:00 12.8 0 Calma 6 Nordeste 0 -- -- 76
2020-10-24 07:00:00 12.9 0 Calma 5 Nordeste 0 -- -- 78
2020-10-24 06:00:00 13.1 0 Calma 5 Nordeste 0 -- -- 78
2020-10-24 05:00:00 13.4 0 Calma 6 Sur 0 -- -- 78
2020-10-24 04:00:00 13.4 0 Calma 5 Nordeste 0 -- -- 77
2020-10-24 03:00:00 13.5 0 Calma 7 Nordeste 0 -- -- 82
2020-10-24 02:00:00 13.7 0 Calma 4 Nordeste 0 -- -- 84
2020-10-24 01:00:00 13.9 0 Calma 5 Norte 0 -- -- 83
2020-10-24 00:00:00 14.1 0 Calma 5 Nordeste 0 -- -- 85
2020-10-23 23:00:00 14.5 3 Sudeste 7 Este 0 -- -- 82
2020-10-23 22:00:00 14.9 4 Este 6 Este 0 -- -- 81
2020-10-23 21:00:00 15.5 0 Calma 9 Oeste 0 -- -- 78
2020-10-23 20:00:00 16.8 5 Oeste 16 Oeste 0 -- -- 73
2020-10-23 19:00:00 18.9 10 Oeste 26 Oeste 0 -- -- 66
2020-10-23 18:00:00 21.3 13 Oeste 26 Norte 0 -- -- 58
2020-10-23 17:00:00 21.2 13 Oeste 30 Oeste 0 -- -- 55
2020-10-23 16:00:00 21.3 14 Oeste 31 Oeste 0 -- -- 55
2020-10-23 15:00:00 19.7 13 Oeste 25 Oeste 0 -- -- 58
2020-10-23 14:00:00 19.1 8 Oeste 20 Oeste 0 -- -- 61
2020-10-23 13:00:00 19.3 10 Oeste 21 Sudoeste 0 -- -- 58
2020-10-23 12:00:00 17.5 4 Oeste 7 Noroeste 0 -- -- 58
2020-10-23 11:00:00 16.1 0 Calma 4 Oeste 0 -- -- 64
2020-10-23 10:00:00 13.7 0 Calma 4 Noroeste 0 -- -- 70
2020-10-23 09:00:00 13.3 2 Nordeste 15 Nordeste 0 -- -- 73
2020-10-23 08:00:00 13.3 7 Sudeste 12 Este 0 -- -- 71
2020-10-23 07:00:00 13.4 2 Nordeste 12 Nordeste 0 -- -- 76
2020-10-23 06:00:00 13.4 8 Este 12 Nordeste 0 -- -- 80
2020-10-23 05:00:00 13.6 0 Calma 8 Sudeste 0 -- -- 81
2020-10-23 04:00:00 13.8 4 Este 10 Nordeste 0 -- -- 82
2020-10-23 03:00:00 13.8 10 Nordeste 13 Norte 0 -- -- 84
2020-10-23 02:00:00 13.8 7 Nordeste 10 Nordeste 0 -- -- 85
2020-10-23 01:00:00 14 0 Calma 5 Sudoeste 0 -- -- 75
2020-10-23 00:00:00 14.1 3 Sudoeste 8 Oeste 0 -- -- 73
2020-10-22 23:00:00 14.2 0 Calma 5 Noroeste 0 -- -- 73
2020-10-22 22:00:00 14.7 0 Calma 9 Oeste 0 -- -- 84
2020-10-22 21:00:00 15.5 4 Oeste 18 Oeste 0 -- -- 88
2020-10-22 20:00:00 15.8 8 Oeste 20 Sudoeste 0 -- -- 86
2020-10-22 19:00:00 16.2 8 Oeste 21 Oeste 0 -- -- 84
2020-10-22 18:00:00 16.9 10 Noroeste 24 Oeste 0.2 -- -- 82
2020-10-22 17:00:00 18.6 12 Oeste 28 Sudoeste 0 -- -- 74
2020-10-22 16:00:00 21.1 15 Oeste 27 Oeste 0 -- -- 68
2020-10-22 15:00:00 19.4 11 Oeste 23 Oeste 0 -- -- 78
2020-10-22 14:00:00 16.8 8 Sur 18 Sudoeste 0 -- -- 86
2020-10-22 13:00:00 17.6 12 Sudoeste 26 Sudoeste 0 -- -- 86
2020-10-22 12:00:00 17.7 9 Sudoeste 17 Sur 0 -- -- 81
2020-10-22 11:00:00 15.9 3 Oeste 11 Noroeste 0 -- -- 81
2020-10-22 10:00:00 14.3 2 Oeste 13 Norte 0 -- -- 81
2020-10-22 09:00:00 13.8 11 Norte 21 Norte 0 -- -- 85
2020-10-22 08:00:00 13.7 4 Norte 17 Norte 0 -- -- 84
2020-10-22 07:00:00 13.7 3 Norte 18 Nordeste 0 -- -- 85
2020-10-22 06:00:00 14.1 4 Noroeste 8 Norte 0.2 -- -- 85
2020-10-22 05:00:00 14.4 0 Calma 5 Noroeste 0 -- -- 89
2020-10-22 04:00:00 14.8 3 Sudoeste 6 Sudoeste 0 -- -- 92
2020-10-22 03:00:00 15 0 Calma 3 Oeste 0 -- -- 92
2020-10-22 02:00:00 15.1 0 Calma 9 Norte 0 -- -- 94
2020-10-22 01:00:00 15.6 3 Noroeste 8 Sudoeste 0 -- -- 95
2020-10-22 00:00:00 15.4 0 Calma 6 Noroeste 0.4 -- -- 94
2020-10-21 23:00:00 15.4 0 Calma 14 Sur 4.4 -- -- 93
2020-10-21 22:00:00 15.7 0 Calma 6 Oeste 0 -- -- 95
2020-10-21 21:00:00 15.8 4 Oeste 18 Sudoeste 0.2 -- -- 95
2020-10-21 20:00:00 16.1 10 Oeste 26 Sudoeste 8.8 -- -- 94
2020-10-21 19:00:00 16.5 6 Sudoeste 17 Oeste 0 -- -- 89
2020-10-21 18:00:00 16.8 7 Sudoeste 15 Sudoeste 0 -- -- 87
2020-10-21 17:00:00 17.1 9 Sudoeste 22 Sudoeste 0.6 -- -- 92
2020-10-21 16:00:00 17.8 9 Sudoeste 19 Sudoeste 0.4 -- -- 88
2020-10-21 15:00:00 19.5 14 Sudoeste 25 Sudoeste 0 -- -- 75
2020-10-21 14:00:00 19.5 16 Sur 28 Sur 0 -- -- 74
2020-10-21 13:00:00 19.8 14 Sur 27 Sur 0 -- -- 76
2020-10-21 12:00:00 19.3 13 Sur 22 Sur 0 -- -- 77
2020-10-21 11:00:00 17.9 5 Este 14 Sur 0 -- -- 79
2020-10-21 10:00:00 16.5 5 Sudeste 10 Sur 0 -- -- 85
2020-10-21 09:00:00 15.5 4 Sudoeste 9 Sudoeste 0 -- -- 92
2020-10-21 08:00:00 15.2 3 Oeste 12 Sudoeste 0 -- -- 89
2020-10-21 07:00:00 15.4 6 Sudoeste 20 Oeste 0 -- -- 86
2020-10-21 06:00:00 15.5 7 Oeste 13 Oeste 0 -- -- 92
2020-10-21 05:00:00 15.7 6 Noroeste 12 Noroeste 0 -- -- 93
2020-10-21 04:00:00 16 4 Sudoeste 9 Sudoeste 0 -- -- 93
2020-10-21 03:00:00 16.5 5 Oeste 10 Oeste 0 -- -- 94
2020-10-21 02:00:00 16.6 5 Sur 10 Oeste 0 -- -- 91
2020-10-21 01:00:00 17 9 Oeste 19 Oeste 0 -- -- 90
2020-10-21 00:00:00 17.3 4 Sudoeste 12 Oeste 0 -- -- 91
2020-10-20 23:00:00 17.9 2 Sudoeste 15 Noroeste 0 -- -- 90
2020-10-20 22:00:00 18.5 8 Sur 19 Oeste 0 -- -- 89
2020-10-20 21:00:00 19.8 9 Oeste 29 Oeste 0 -- -- 74
2020-10-20 20:00:00 20.1 15 Oeste 37 Oeste 0 -- -- 77
2020-10-20 19:00:00 21 15 Oeste 35 Noroeste 0 -- -- 80
2020-10-20 18:00:00 20.7 22 Oeste 44 Oeste 0 -- -- 86
2020-10-20 17:00:00 19.7 17 Oeste 49 Sudoeste 0 -- -- 92
2020-10-20 16:00:00 21.2 28 Noroeste 51 Noroeste 0 -- -- 81
2020-10-20 15:00:00 21.8 24 Noroeste 57 Noroeste 0 -- -- 77
2020-10-20 14:00:00 22.4 27 Oeste 60 Noroeste 0 -- -- 68
2020-10-20 13:00:00 23.1 33 Noroeste 69 Noroeste 0 -- -- 58
2020-10-20 12:00:00 22.7 28 Oeste 83 Sudoeste 0 -- -- 61
2020-10-20 11:00:00 21.4 24 Oeste 50 Sudoeste 0 -- -- 67
2020-10-20 10:00:00 19.7 26 Oeste 57 Sudoeste 0 -- -- 71
2020-10-20 09:00:00 19.6 19 Oeste 34 Noroeste 0 -- -- 69
2020-10-20 08:00:00 19.5 18 Oeste 37 Oeste 0 -- -- 66
2020-10-20 07:00:00 19.5 20 Oeste 35 Oeste 0 -- -- 68
2020-10-20 06:00:00 19.5 19 Oeste 37 Oeste 0 -- -- 68
2020-10-20 05:00:00 19.4 15 Oeste 29 Oeste 0 -- -- 70
2020-10-20 04:00:00 19.5 15 Oeste 29 Oeste 0 -- -- 69
2020-10-20 03:00:00 19.7 15 Oeste 26 Oeste 0 -- -- 71
2020-10-20 02:00:00 19.9 10 Noroeste 15 Oeste 0 -- -- 72
2020-10-20 01:00:00 20.2 8 Noroeste 14 Oeste 0 -- -- 71
2020-10-20 00:00:00 20.4 8 Noroeste 16 Norte 0 -- -- 72
2020-10-19 23:00:00 20.2 8 Noroeste 13 Norte 0 -- -- 73
2020-10-19 22:00:00 20.7 6 Noroeste 22 Noroeste 0 -- -- 72
2020-10-19 21:00:00 20.9 10 Noroeste 20 Norte 0 -- -- 72
2020-10-19 20:00:00 21.7 8 Oeste 24 Oeste 0 -- -- 70
2020-10-19 19:00:00 24 13 Oeste 24 Oeste 0 -- -- 66
2020-10-19 18:00:00 25.8 17 Oeste 36 Oeste 0 -- -- 59
2020-10-19 17:00:00 27.1 17 Oeste 31 Sudoeste 0 -- -- 56
2020-10-19 16:00:00 27.6 17 Oeste 30 Oeste 0 -- -- 56
2020-10-19 15:00:00 27.2 17 Oeste 29 Oeste 0 -- -- 55
2020-10-19 14:00:00 26.3 16 Oeste 26 Oeste 0 -- -- 57
2020-10-19 13:00:00 24.9 13 Oeste 22 Sudoeste 0 -- -- 62
2020-10-19 12:00:00 22.1 6 Oeste 10 Sudoeste 0 -- -- 73
2020-10-19 11:00:00 20.7 4 Oeste 12 Oeste 0 -- -- 76
2020-10-19 10:00:00 18.7 7 Oeste 17 Oeste 0 -- -- 81
2020-10-19 09:00:00 18 9 Noroeste 18 Noroeste 0 -- -- 82
2020-10-19 08:00:00 17.8 8 Noroeste 16 Oeste 0 -- -- 84
2020-10-19 07:00:00 17.9 6 Noroeste 15 Noroeste 0 -- -- 81
2020-10-19 06:00:00 18.6 11 Oeste 28 Noroeste 0 -- -- 82
2020-10-19 05:00:00 18.9 17 Noroeste 35 Noroeste 0 -- -- 80
2020-10-19 04:00:00 18.8 19 Noroeste 32 Noroeste 0 -- -- 79
2020-10-19 03:00:00 18.5 12 Noroeste 22 Norte 0 -- -- 73
2020-10-19 02:00:00 18 13 Noroeste 18 Noroeste 0 -- -- 69
2020-10-19 01:00:00 17.4 7 Oeste 13 Oeste 0 -- -- 64
2020-10-19 00:00:00 17.4 4 Noroeste 15 Sudoeste 0 -- -- 64
2020-10-18 23:00:00 17.5 8 Oeste 11 Noroeste 0 -- -- 65
2020-10-18 22:00:00 17.2 5 Noroeste 10 Noroeste 0 -- -- 73
2020-10-18 21:00:00 16.4 2 Norte 8 Este 0 -- -- 88
2020-10-18 20:00:00 16.9 4 Oeste 12 Sudoeste 0 -- -- 88
2020-10-18 19:00:00 18 7 Oeste 15 Oeste 0 -- -- 84
2020-10-18 18:00:00 19 8 Oeste 18 Oeste 0 -- -- 80
2020-10-18 17:00:00 19.7 9 Oeste 18 Oeste 0 -- -- 76
2020-10-18 16:00:00 19.3 9 Sudoeste 19 Sudoeste 0 -- -- 78
2020-10-18 15:00:00 19.6 9 Sudoeste 20 Sudoeste 0 -- -- 77
2020-10-18 14:00:00 19.6 8 Sudoeste 16 Sudoeste 0 -- -- 76
2020-10-18 13:00:00 18.7 10 Sudoeste 17 Sudoeste 0 -- -- 82
2020-10-18 12:00:00 18.2 6 Oeste 14 Sudoeste 0 -- -- 83
2020-10-18 11:00:00 16.7 3 Oeste 5 Nordeste 0 -- -- 85
2020-10-18 10:00:00 14.4 0 Calma 5 Sudoeste 0 -- -- 93
2020-10-18 09:00:00 14 2 Sur 4 Sudeste 0 -- -- 94
2020-10-18 08:00:00 13.9 3 Sur 6 Nordeste 0 -- -- 92
2020-10-18 07:00:00 14 0 Calma 6 Sudoeste 0 -- -- 90
2020-10-18 06:00:00 14.2 0 Calma 12 Norte 0 -- -- 89
2020-10-18 05:00:00 14.3 0 Calma 8 Norte 0 -- -- 90
2020-10-18 04:00:00 14.6 0 Calma 10 Nordeste 0 -- -- 88
2020-10-18 03:00:00 15 0 Calma 7 Este 0 -- -- 89
2020-10-18 02:00:00 15 0 Calma 3 Sur 0 -- -- 89
2020-10-18 01:00:00 14.7 0 Calma 8 Sudoeste 0 -- -- 90
2020-10-18 00:00:00 14.8 0 Calma 9 Norte 0 -- -- 88
2020-10-17 23:00:00 15.5 0 Calma 8 Oeste 0 -- -- 87
2020-10-17 22:00:00 15.6 3 Sudoeste 12 Oeste 0 -- -- 88
2020-10-17 21:00:00 15.9 5 Oeste 9 Oeste 0 -- -- 90
2020-10-17 20:00:00 15.9 2 Oeste 13 Oeste 0 -- -- 89
2020-10-17 19:00:00 15.9 5 Sudoeste 13 Oeste 0 -- -- 90
2020-10-17 18:00:00 16.2 5 Sudoeste 13 Oeste 0 -- -- 90
2020-10-17 17:00:00 16.9 8 Oeste 18 Oeste 0 -- -- 87
2020-10-17 16:00:00 17 7 Sudoeste 19 Sudoeste 0 -- -- 86
2020-10-17 15:00:00 18.8 9 Oeste 20 Oeste 0 -- -- 78
2020-10-17 14:00:00 18.3 10 Sudoeste 21 Sur 0 -- -- 80
2020-10-17 13:00:00 18.4 8 Sudoeste 15 Oeste 0 -- -- 80
2020-10-17 12:00:00 18.5 8 Oeste 17 Oeste 0 -- -- 73
2020-10-17 11:00:00 17.3 5 Sudoeste 15 Sur 0 -- -- 80
2020-10-17 10:00:00 16 5 Sudoeste 10 Sudoeste 0 -- -- 85
2020-10-17 09:00:00 15.7 3 Norte 6 Este 0 -- -- 83
2020-10-17 08:00:00 15.4 0 Calma 5 Oeste 0 -- -- 85
2020-10-17 07:00:00 15.1 0 Calma 3 Este 0 -- -- 87
2020-10-17 06:00:00 15.1 2 Sudeste 5 Sur 0 -- -- 85
2020-10-17 05:00:00 15.6 4 Sur 5 Sur 0 -- -- 85
2020-10-17 04:00:00 16.1 4 Sudoeste 8 Oeste 0 -- -- 85
2020-10-17 03:00:00 16.2 5 Oeste 12 Sudoeste 0 -- -- 83
2020-10-17 02:00:00 15.8 4 Oeste 8 Sudoeste 0 -- -- 87
2020-10-17 01:00:00 16.3 3 Oeste 10 Oeste 0 -- -- 86
2020-10-17 00:00:00 16.6 6 Sudoeste 13 Sudoeste 0 -- -- 87
2020-10-16 23:00:00 17 7 Oeste 12 Oeste 0 -- -- 89
2020-10-16 22:00:00 17.1 3 Sudoeste 12 Sudoeste 0 -- -- 88
2020-10-16 21:00:00 17.6 4 Sudoeste 15 Oeste 0 -- -- 86
2020-10-16 20:00:00 17.9 6 Oeste 16 Oeste 0 -- -- 84
2020-10-16 19:00:00 18.4 7 Oeste 19 Oeste 0 -- -- 82
2020-10-16 18:00:00 19.6 10 Oeste 22 Oeste 0 -- -- 76
2020-10-16 17:00:00 21.4 13 Oeste 31 Noroeste 0 -- -- 68
2020-10-16 16:00:00 23.7 14 Oeste 28 Oeste 0 -- -- 61
2020-10-16 15:00:00 23.6 12 Oeste 28 Oeste 0 -- -- 62
2020-10-16 14:00:00 23.2 13 Oeste 21 Oeste 0 -- -- 64
2020-10-16 13:00:00 21.7 9 Oeste 18 Oeste 0 -- -- 69
2020-10-16 12:00:00 20.6 6 Sudoeste 12 Sudoeste 0 -- -- 72
2020-10-16 11:00:00 18.8 2 Oeste 6 Noroeste 0 -- -- 80
2020-10-16 10:00:00 16.3 0 Calma 6 Oeste 0 -- -- 89
2020-10-16 09:00:00 16 2 Oeste 6 Noroeste 0 -- -- 92
2020-10-16 08:00:00 15.6 2 Sudoeste 5 Sudoeste 0 -- -- 93
2020-10-16 07:00:00 15.6 0 Calma 7 Norte 0 -- -- 91
2020-10-16 06:00:00 16 3 Noroeste 8 Este 0 -- -- 91
2020-10-16 05:00:00 16.3 0 Calma 9 Sur 0 -- -- 91
2020-10-16 04:00:00 16.6 3 Sudoeste 9 Sudoeste 0 -- -- 91
2020-10-16 03:00:00 16.8 0 Calma 7 Noroeste 0 -- -- 91
2020-10-16 02:00:00 17.2 2 Noroeste 8 Norte 0 -- -- 90
2020-10-16 01:00:00 17.2 2 Noroeste 5 Oeste 0 -- -- 90
2020-10-16 00:00:00 18.1 0 Calma 5 Nordeste 0 -- -- 82
2020-10-15 23:00:00 20 0 Calma 5 Sudoeste 0 -- -- 70
2020-10-15 22:00:00 20.5 3 Nordeste 5 Sur 0 -- -- 68
2020-10-15 21:00:00 19.6 0 Calma 5 Sur 0 -- -- 79
2020-10-15 20:00:00 20.4 0 Calma 8 Oeste 0 -- -- 75
2020-10-15 19:00:00 22.5 4 Noroeste 15 Oeste 0 -- -- 69
2020-10-15 18:00:00 23.9 9 Oeste 18 Oeste 0 -- -- 65
2020-10-15 17:00:00 23.8 9 Oeste 21 Oeste 0 -- -- 65
2020-10-15 16:00:00 24.7 10 Oeste 21 Sudoeste 0 -- -- 61
2020-10-15 15:00:00 24.9 9 Oeste 16 Sur 0 -- -- 59
2020-10-15 14:00:00 26.1 9 Oeste 16 Sudoeste 0 -- -- 54
2020-10-15 13:00:00 24.7 5 Oeste 12 Sudoeste 0 -- -- 57
2020-10-15 12:00:00 24.3 3 Sudoeste 10 Sur 0 -- -- 53
2020-10-15 11:00:00 21.7 2 Sudoeste 13 Este 0 -- -- 62
2020-10-15 10:00:00 19.5 7 Este 14 Este 0 -- -- 54
2020-10-15 09:00:00 16.6 3 Nordeste 7 Este 0 -- -- 89
2020-10-15 08:00:00 17.6 3 Noroeste 8 Este 0 -- -- 82
2020-10-15 07:00:00 19.6 2 Norte 12 Este 0 -- -- 53
2020-10-15 06:00:00 20.6 3 Sudeste 12 Este 0 -- -- 46
2020-10-15 05:00:00 21.4 0 Calma 5 Nordeste 0 -- -- 40
2020-10-15 04:00:00 19.9 0 Calma 8 Noroeste 0 -- -- 63
2020-10-15 03:00:00 18 3 Nordeste 13 Nordeste 0 -- -- 84
2020-10-15 02:00:00 18.3 0 Calma 6 Nordeste 0 -- -- 87
2020-10-15 01:00:00 19.3 0 Calma 6 Sur 0 -- -- 77
2020-10-15 00:00:00 20.9 0 Calma 5 Nordeste 0 -- -- 69
2020-10-14 23:00:00 21.8 0 Calma 8 Sudoeste 0 -- -- 62
2020-10-14 22:00:00 21.9 3 Este 12 Este 0 -- -- 69
2020-10-14 21:00:00 23.8 8 Este 13 Este 0 -- -- 60
2020-10-14 20:00:00 22 4 Nordeste 10 Sudoeste 0 -- -- 69
2020-10-14 19:00:00 24.8 4 Noroeste 14 Sudoeste 0 -- -- 61
2020-10-14 18:00:00 27.8 7 Oeste 17 Noroeste 0 -- -- 53
2020-10-14 17:00:00 28.7 7 Sudoeste 21 Sudoeste 0 -- -- 49
2020-10-14 16:00:00 30.4 9 Oeste 19 Oeste 0 -- -- 44
2020-10-14 15:00:00 29.4 10 Oeste 17 Oeste 0 -- -- 48
2020-10-14 14:00:00 27.8 9 Oeste 17 Oeste 0 -- -- 51
2020-10-14 13:00:00 28.1 6 Oeste 12 Oeste 0 -- -- 51
2020-10-14 12:00:00 27.8 6 Sudoeste 16 Sur 0 -- -- 46
2020-10-14 11:00:00 26.5 3 Sur 21 Sur 0 -- -- 29
2020-10-14 10:00:00 25 0 Calma 7 Nordeste 0 -- -- 28
2020-10-14 09:00:00 24.3 4 Nordeste 10 Sudeste 0 -- -- 29
2020-10-14 08:00:00 23.3 0 Calma 14 Nordeste 0 -- -- 33
2020-10-14 07:00:00 21.7 4 Sudeste 18 Este 0 -- -- 44
2020-10-14 06:00:00 21.4 4 Este 19 Este 0 -- -- 51
2020-10-14 05:00:00 21.3 5 Sur 12 Sudoeste 0 -- -- 59
2020-10-14 04:00:00 22.8 4 Sudeste 14 Sur 0 -- -- 52
2020-10-14 03:00:00 22.9 5 Nordeste 11 Sur 0 -- -- 42
2020-10-14 02:00:00 24.8 4 Oeste 11 Nordeste 0 -- -- 33
2020-10-14 01:00:00 24.9 5 Noroeste 11 Norte 0 -- -- 35
2020-10-14 00:00:00 25.1 0 Calma 7 Sudeste 0 -- -- 40
2020-10-13 23:00:00 25.3 4 Nordeste 6 Nordeste 0 -- -- 37
2020-10-13 22:00:00 26.2 4 Sudoeste 7 Sur 0 -- -- 37
2020-10-13 21:00:00 26.5 2 Sudoeste 8 Nordeste 0 -- -- 40
2020-10-13 20:00:00 28 5 Nordeste 10 Este 0 -- -- 32
2020-10-13 19:00:00 28.4 3 Nordeste 11 Sudoeste 0 -- -- 38
2020-10-13 18:00:00 30.8 7 Oeste 13 Sudoeste 0 -- -- 33
2020-10-13 17:00:00 31.5 5 Noroeste 12 Sudoeste 0 -- -- 30
2020-10-13 16:00:00 31.3 4 Sudoeste 14 Este 0 -- -- 30
2020-10-13 15:00:00 30.3 4 Norte 16 Este 0 -- -- 23
2020-10-13 14:00:00 29.7 5 Oeste 27 Sur 0 -- -- 27
2020-10-13 13:00:00 28.9 10 Sur 26 Este 0 -- -- 26
2020-10-13 12:00:00 28.6 5 Sur 28 Nordeste 0 -- -- 42
2020-10-13 11:00:00 28.3 17 Norte 29 Nordeste 0 -- -- 24
2020-10-13 10:00:00 -- -- -- -- -- -- -- -- --
2020-10-13 09:00:00 -- -- -- -- -- -- -- -- --
2020-10-13 08:00:00 27.3 23 Nordeste 32 Nordeste 0 -- -- 22
2020-10-13 07:00:00 27.9 17 Nordeste 22 Nordeste 0 -- -- 23
2020-10-13 06:00:00 27.3 8 Sudeste 22 Nordeste 0 -- -- 24
2020-10-13 05:00:00 27.9 8 Nordeste 25 Nordeste 0 -- -- 24
2020-10-13 04:00:00 28.6 17 Nordeste 33 Nordeste 0 -- -- 23
2020-10-13 03:00:00 -- -- -- -- -- -- -- -- --
2020-10-13 02:00:00 29 17 Nordeste 29 Nordeste 0 -- -- 21
2020-10-13 01:00:00 29.3 18 Nordeste 28 Nordeste 0 -- -- 21
2020-10-13 00:00:00 -- -- -- -- -- -- -- -- --
2020-10-12 23:00:00 29.3 17 Nordeste 31 Nordeste 0 -- -- 20
2020-10-12 22:00:00 29.6 18 Nordeste 26 Nordeste 0 -- -- 19
2020-10-12 21:00:00 29.2 15 Nordeste 22 Nordeste 0 -- -- 20
2020-10-12 20:00:00 29.2 13 Nordeste 24 Norte 0 -- -- 20
2020-10-12 19:00:00 30.7 17 Norte 25 Norte 0 -- -- 20
2020-10-12 18:00:00 32 15 Nordeste 28 Nordeste 0 -- -- 20
2020-10-12 17:00:00 -- -- -- -- -- -- -- -- --
2020-10-12 16:00:00 32.8 12 Nordeste 34 Este 0 -- -- 20
2020-10-12 15:00:00 32.7 10 Nordeste 39 Este 0 -- -- 20
2020-10-12 14:00:00 33.1 10 Este 27 Este 0 -- -- 19
2020-10-12 13:00:00 32.2 13 Nordeste 32 Nordeste 0 -- -- 20
2020-10-12 12:00:00 31.5 16 Nordeste 35 Nordeste 0 -- -- 20
2020-10-12 11:00:00 29.9 22 Nordeste 42 Norte 0 -- -- 22
2020-10-12 10:00:00 28.2 28 Nordeste 45 Nordeste 0 -- -- 23
2020-10-12 09:00:00 27.8 29 Nordeste 40 Nordeste 0 -- -- 23
2020-10-12 08:00:00 27.7 25 Nordeste 35 Nordeste 0 -- -- 22
2020-10-12 07:00:00 27.6 21 Nordeste 33 Nordeste 0 -- -- 23
2020-10-12 06:00:00 27.5 21 Nordeste 29 Nordeste 0 -- -- 24
2020-10-12 05:00:00 27.4 14 Nordeste 27 Nordeste 0 -- -- 26
2020-10-12 04:00:00 27.1 14 Nordeste 22 Nordeste 0 -- -- 28
2020-10-12 03:00:00 -- -- -- -- -- -- -- -- --
2020-10-12 02:00:00 27.1 12 Nordeste 19 Nordeste 0 -- -- 29
2020-10-12 01:00:00 27.2 12 Nordeste 18 Nordeste 0 -- -- 29
2020-10-12 00:00:00 26.9 10 Nordeste 19 Nordeste 0 -- -- 30
2020-10-11 23:00:00 26.5 9 Nordeste 16 Nordeste 0 -- -- 30
2020-10-11 22:00:00 26.7 11 Nordeste 14 Nordeste 0 -- -- 29
2020-10-11 21:00:00 26.7 10 Nordeste 13 Nordeste 0 -- -- 30
2020-10-11 20:00:00 -- -- -- -- -- -- -- -- --
2020-10-11 19:00:00 -- -- -- -- -- -- -- -- --
2020-10-11 18:00:00 30.1 4 Oeste 14 Oeste 0 -- -- 42
2020-10-11 17:00:00 30.1 6 Sudoeste 18 Este 0 -- -- 40
2020-10-11 16:00:00 29.9 7 Este 19 Sudeste 0 -- -- 40
2020-10-11 15:00:00 29.8 7 Este 21 Este 0 -- -- 40
2020-10-11 14:00:00 29.7 6 Este 23 Sudeste 0 -- -- 38
2020-10-11 13:00:00 28.7 7 Este 20 Sudeste 0 -- -- 34
2020-10-11 12:00:00 28.5 7 Sur 22 Este 0 -- -- 38
2020-10-11 11:00:00 27.7 7 Sudeste 21 Este 0 -- -- 25
2020-10-11 10:00:00 24.8 4 Sudeste 12 Este 0 -- -- 33
2020-10-11 09:00:00 21 4 Este 16 Este 0 -- -- 40
2020-10-11 08:00:00 21.1 10 Este 14 Este 0 -- -- 49
2020-10-11 07:00:00 20.5 7 Este 10 Este 0 -- -- 51
2020-10-11 06:00:00 19.3 4 Nordeste 5 Nordeste 0 -- -- 66
2020-10-11 05:00:00 21 3 Noroeste 13 Nordeste 0 -- -- 58
2020-10-11 04:00:00 21.5 7 Este 11 Este 0 -- -- 60
2020-10-11 03:00:00 21.5 0 Calma 4 Nordeste 0 -- -- 60
2020-10-11 02:00:00 20.9 3 Norte 11 Este 0 -- -- 66
2020-10-11 01:00:00 21.3 3 Sur 5 Sur 0 -- -- 68
2020-10-11 00:00:00 21.2 0 Calma 4 Sur 0 -- -- 67
2020-10-10 23:00:00 21.3 0 Calma 5 Sur 0 -- -- 72
2020-10-10 22:00:00 21.2 0 Calma 4 Sudoeste 0 -- -- 76
2020-10-10 21:00:00 20.9 0 Calma 5 Sur 0 -- -- 77
2020-10-10 20:00:00 21.8 3 Oeste 10 Oeste 0 -- -- 73
2020-10-10 19:00:00 24.4 4 Noroeste 15 Oeste 0 -- -- 65
2020-10-10 18:00:00 25.7 10 Oeste 16 Sudoeste 0 -- -- 63
2020-10-10 17:00:00 26.5 8 Oeste 15 Sudoeste 0 -- -- 61
2020-10-10 16:00:00 26 6 Oeste 18 Sudoeste 0 -- -- 60
2020-10-10 15:00:00 25.6 7 Oeste 19 Sur 0 -- -- 61
2020-10-10 14:00:00 24.9 6 Oeste 18 Sudeste 0 -- -- 63
2020-10-10 13:00:00 24.6 11 Sur 23 Sur 0 -- -- 60
2020-10-10 12:00:00 22.8 5 Sudoeste 12 Sudoeste 0 -- -- 68
2020-10-10 11:00:00 20.7 3 Oeste 6 Noroeste 0 -- -- 70
2020-10-10 10:00:00 17.9 2 Sur 9 Sudoeste 0 -- -- 77
2020-10-10 09:00:00 18 0 Calma 6 Sudeste 0 -- -- 78
2020-10-10 08:00:00 18 3 Este 7 Nordeste 0 -- -- 75
2020-10-10 07:00:00 17.5 5 Este 10 Sudeste 0 -- -- 82
2020-10-10 06:00:00 17.1 0 Calma 5 Nordeste 0 -- -- 88
2020-10-10 05:00:00 18.2 0 Calma 11 Sur 0 -- -- 77
2020-10-10 04:00:00 18.2 4 Norte 7 Noroeste 0 -- -- 72
2020-10-10 03:00:00 19.6 2 Nordeste 5 Nordeste 0 -- -- 67
2020-10-10 02:00:00 20.7 0 Calma 6 Nordeste 0 -- -- 59
2020-10-10 01:00:00 19.8 4 Nordeste 6 Este 0 -- -- 68
2020-10-10 00:00:00 20.9 3 Nordeste 6 Nordeste 0 -- -- 58
2020-10-09 23:00:00 20.8 0 Calma 4 Norte 0 -- -- 67
2020-10-09 22:00:00 21 0 Calma 4 Sur 0 -- -- 77
2020-10-09 21:00:00 21 3 Nordeste 5 Norte 0 -- -- 77
2020-10-09 20:00:00 22.1 0 Calma 14 Sudoeste 0 -- -- 71
2020-10-09 19:00:00 24 7 Oeste 19 Sur 0 -- -- 67
2020-10-09 18:00:00 26.5 10 Oeste 22 Oeste 0 -- -- 61
2020-10-09 17:00:00 26.2 11 Oeste 23 Oeste 0 -- -- 62
2020-10-09 16:00:00 25.9 12 Oeste 22 Oeste 0 -- -- 64
2020-10-09 15:00:00 25.9 10 Oeste 23 Sur 0 -- -- 65
2020-10-09 14:00:00 25.3 7 Oeste 14 Noroeste 0 -- -- 66
2020-10-09 13:00:00 24.4 6 Oeste 18 Sudoeste 0 -- -- 70
2020-10-09 12:00:00 23.6 4 Oeste 10 Sur 0 -- -- 71
2020-10-09 11:00:00 22.3 3 Noroeste 10 Sur 0 -- -- 70
2020-10-09 10:00:00 20.7 2 Sur 6 Este 0 -- -- 65
2020-10-09 09:00:00 21.1 0 Calma 6 Este 0 -- -- 64
2020-10-09 08:00:00 21.4 0 Calma 5 Este 0 -- -- 63
2020-10-09 07:00:00 21.4 2 Oeste 7 Norte 0 -- -- 66
2020-10-09 06:00:00 21 5 Norte 10 Norte 0 -- -- 68
2020-10-09 05:00:00 20.9 0 Calma 6 Noroeste 0 -- -- 70
2020-10-09 04:00:00 21.2 3 Norte 5 Norte 0 -- -- 69
2020-10-09 03:00:00 21.5 0 Calma 3 Nordeste 0 -- -- 68
2020-10-09 02:00:00 21.3 3 Nordeste 5 Nordeste 0 -- -- 70
2020-10-09 01:00:00 21.6 0 Calma 5 Este 0 -- -- 69
2020-10-09 00:00:00 21.7 0 Calma 2 Sur 0 -- -- 68
2020-10-08 23:00:00 22 0 Calma 5 Este 0 -- -- 67
2020-10-08 22:00:00 22.4 0 Calma 0 Calma 0 -- -- 67
2020-10-08 21:00:00 22.7 0 Calma 4 Oeste 0 -- -- 65
2020-10-08 20:00:00 24 3 Oeste 14 Sudoeste 0 -- -- 61
2020-10-08 19:00:00 26.8 9 Oeste 21 Oeste 0 -- -- 56
2020-10-08 18:00:00 28 9 Oeste 21 Oeste 0 -- -- 53
2020-10-08 17:00:00 27.6 8 Oeste 18 Oeste 0 -- -- 53
2020-10-08 16:00:00 27.8 11 Sudoeste 19 Sudoeste 0 -- -- 54
2020-10-08 15:00:00 27.9 10 Oeste 21 Sudoeste 0 -- -- 55
2020-10-08 14:00:00 26.9 11 Sudoeste 25 Sudoeste 0 -- -- 56
2020-10-08 13:00:00 26 10 Sudoeste 19 Sudoeste 0 -- -- 55
2020-10-08 12:00:00 25.3 4 Oeste 14 Oeste 0 -- -- 60
2020-10-08 11:00:00 24.3 4 Sudoeste 8 Sudoeste 0 -- -- 61
2020-10-08 10:00:00 22 0 Calma 5 Norte 0 -- -- 67
2020-10-08 09:00:00 21.7 0 Calma 4 Nordeste 0 -- -- 65
2020-10-08 08:00:00 21.2 3 Norte 6 Sur 0 -- -- 64
2020-10-08 07:00:00 21.7 0 Calma 6 Nordeste 0 -- -- 63
2020-10-08 06:00:00 21.7 4 Nordeste 6 Este 0 -- -- 63
2020-10-08 05:00:00 22.1 3 Sudeste 9 Nordeste 0 -- -- 60
2020-10-08 04:00:00 22 4 Nordeste 9 Norte 0 -- -- 63
2020-10-08 03:00:00 22.4 3 Nordeste 5 Nordeste 0 -- -- 63
2020-10-08 02:00:00 22.7 0 Calma 6 Nordeste 0 -- -- 65
2020-10-08 01:00:00 22.6 0 Calma 6 Nordeste 0 -- -- 62
2020-10-08 00:00:00 22.4 6 Nordeste 10 Nordeste 0 -- -- 66
2020-10-07 23:00:00 22.7 5 Nordeste 10 Nordeste 0 -- -- 65
2020-10-07 22:00:00 22.7 2 Este 5 Nordeste 0 -- -- 61
2020-10-07 21:00:00 23 0 Calma 4 Sudoeste 0 -- -- 66
2020-10-07 20:00:00 24 0 Calma 8 Oeste 0 -- -- 67
2020-10-07 19:00:00 25.1 5 Noroeste 12 Oeste 0 -- -- 64
2020-10-07 18:00:00 26.3 6 Oeste 17 Oeste 0 -- -- 60
2020-10-07 17:00:00 28.3 9 Oeste 17 Oeste 0 -- -- 52
2020-10-07 16:00:00 28.1 9 Oeste 18 Oeste 0 -- -- 50
2020-10-07 15:00:00 27.1 9 Oeste 19 Sudoeste 0 -- -- 59
2020-10-07 14:00:00 26.7 5 Noroeste 17 Sudoeste 0 -- -- 63
2020-10-07 13:00:00 25.4 4 Oeste 13 Nordeste 0 -- -- 67
2020-10-07 12:00:00 24.7 4 Noroeste 15 Sur 0 -- -- 65
2020-10-07 11:00:00 23.4 2 Este 9 Sur 0 -- -- 68
2020-10-07 10:00:00 21.5 3 Sudeste 5 Sur 0 -- -- 61
2020-10-07 09:00:00 21 2 Norte 10 Nordeste 0 -- -- 60
2020-10-07 08:00:00 20.8 6 Este 9 Este 0 -- -- 61
2020-10-07 07:00:00 21.7 3 Nordeste 7 Sur 0 -- -- 56
2020-10-07 06:00:00 22.1 0 Calma 4 Nordeste 0 -- -- 55
2020-10-07 05:00:00 22.4 3 Nordeste 12 Nordeste 0 -- -- 54
2020-10-07 04:00:00 21.5 8 Nordeste 9 Nordeste 0 -- -- 58
2020-10-07 03:00:00 21.1 7 Nordeste 11 Nordeste 0 -- -- 59
2020-10-07 02:00:00 21.9 4 Este 10 Nordeste 0 -- -- 62
2020-10-07 01:00:00 22.4 9 Nordeste 11 Nordeste 0 -- -- 57
2020-10-07 00:00:00 22.5 5 Este 12 Nordeste 0 -- -- 59
2020-10-06 23:00:00 22.4 9 Nordeste 16 Norte 0 -- -- 59
2020-10-06 22:00:00 21.7 8 Sudeste 12 Este 0 -- -- 71
2020-10-06 21:00:00 21.9 5 Este 8 Este 0 -- -- 71
2020-10-06 20:00:00 21.1 0 Calma 12 Norte 0 -- -- 77
2020-10-06 19:00:00 21 10 Norte 22 Norte 0 -- -- 77
2020-10-06 18:00:00 21.5 5 Noroeste 10 Oeste 0 -- -- 85
2020-10-06 17:00:00 21.4 3 Sudoeste 23 Nordeste 0.2 -- -- 80
2020-10-06 16:00:00 19.1 10 Noroeste 18 Nordeste 0.2 -- -- 93
2020-10-06 15:00:00 19.7 6 Norte 16 Oeste 0.2 -- -- 93
2020-10-06 14:00:00 19.8 4 Oeste 13 Sur 0 -- -- 90
2020-10-06 13:00:00 19.3 6 Sur 14 Noroeste 0 -- -- 93
2020-10-06 12:00:00 18 5 Oeste 13 Sudoeste 0.2 -- -- 93
2020-10-06 11:00:00 18.7 4 Oeste 12 Sur 0 -- -- 90
2020-10-06 10:00:00 18.4 3 Nordeste 8 Nordeste 0 -- -- 88
2020-10-06 09:00:00 19.2 4 Sudoeste 6 Nordeste 0 -- -- 79
2020-10-06 08:00:00 19.2 0 Calma 21 Norte 0 -- -- 75
2020-10-06 07:00:00 17.3 6 Norte 14 Norte 0 -- -- 89
2020-10-06 06:00:00 17.5 4 Este 17 Sudeste 0 -- -- 85
2020-10-06 05:00:00 17.2 0 Calma 14 Este 0 -- -- 87
2020-10-06 04:00:00 18.2 2 Sudoeste 6 Nordeste 0 -- -- 77
2020-10-06 03:00:00 19.3 3 Sudeste 9 Sur 0 -- -- 66
2020-10-06 02:00:00 16.6 4 Nordeste 8 Noroeste 0 -- -- 90
2020-10-06 01:00:00 16.6 2 Noroeste 13 Nordeste 0 -- -- 89
2020-10-06 00:00:00 16.7 0 Calma 5 Sudoeste 0 -- -- 87
2020-10-05 23:00:00 17 4 Noroeste 12 Este 0 -- -- 86
2020-10-05 22:00:00 17.3 0 Calma 9 Sudeste 0 -- -- 86
2020-10-05 21:00:00 17.6 0 Calma 5 Noroeste 0 -- -- 84
2020-10-05 20:00:00 18.4 2 Oeste 11 Oeste 0 -- -- 81
2020-10-05 19:00:00 19.6 8 Oeste 18 Oeste 0 -- -- 76
2020-10-05 18:00:00 20.5 9 Oeste 22 Sudoeste 0 -- -- 73
2020-10-05 17:00:00 22 12 Sudoeste 22 Sudoeste 0 -- -- 67
2020-10-05 16:00:00 25 11 Oeste 25 Oeste 0 -- -- 58
2020-10-05 15:00:00 24.6 12 Oeste 23 Oeste 0 -- -- 60
2020-10-05 14:00:00 23.1 10 Oeste 22 Oeste 0 -- -- 63
2020-10-05 13:00:00 22.2 12 Oeste 19 Sudoeste 0 -- -- 66
2020-10-05 12:00:00 20.7 8 Sudoeste 15 Sudoeste 0 -- -- 70
2020-10-05 11:00:00 18.9 4 Sudoeste 16 Sudoeste 0 -- -- 75
2020-10-05 10:00:00 15.5 5 Nordeste 12 Este 0 -- -- 85
2020-10-05 09:00:00 15.5 7 Este 14 Este 0 -- -- 86
2020-10-05 08:00:00 14.9 2 Este 9 Este 0 -- -- 88
2020-10-05 07:00:00 15 6 Sudoeste 17 Noroeste 0 -- -- 90
2020-10-05 06:00:00 15.3 6 Nordeste 9 Norte 0 -- -- 88
2020-10-05 05:00:00 15.5 4 Sudeste 14 Este 0 -- -- 93
2020-10-05 04:00:00 15.7 6 Este 9 Este 0 -- -- 89
2020-10-05 03:00:00 16.4 2 Oeste 8 Noroeste 0 -- -- 87
2020-10-05 02:00:00 16.6 0 Calma 10 Oeste 0 -- -- 88
2020-10-05 01:00:00 16.6 6 Sudoeste 13 Sudoeste 0 -- -- 88
2020-10-05 00:00:00 16.8 6 Sudoeste 15 Oeste 0 -- -- 87
2020-10-04 23:00:00 17.1 8 Sudoeste 14 Sudoeste 0 -- -- 86
2020-10-04 22:00:00 17.5 6 Oeste 10 Oeste 0 -- -- 85
2020-10-04 21:00:00 17.5 5 Sudoeste 15 Sudoeste 0 -- -- 87
2020-10-04 20:00:00 18.6 10 Sur 16 Oeste 0 -- -- 83
2020-10-04 19:00:00 20.4 10 Oeste 15 Oeste 0 -- -- 80
2020-10-04 18:00:00 18.7 4 Oeste 15 Sudoeste 0 -- -- 87
2020-10-04 17:00:00 18.7 9 Sudoeste 23 Sur 0 -- -- 87
2020-10-04 16:00:00 21.9 16 Sur 23 Sur 0 -- -- 76
2020-10-04 15:00:00 23.4 14 Oeste 24 Oeste 0 -- -- 70
2020-10-04 14:00:00 20.4 11 Sudoeste 18 Oeste 0 -- -- 81
2020-10-04 13:00:00 19.4 10 Sudoeste 19 Oeste 0 -- -- 87
2020-10-04 12:00:00 19.4 8 Sudoeste 15 Sur 0 -- -- 87
2020-10-04 11:00:00 19.5 3 Oeste 16 Sudoeste 0 -- -- 84
2020-10-04 10:00:00 16.8 0 Calma 7 Sudoeste 0 -- -- 90
2020-10-04 09:00:00 16.4 3 Este 5 Sudeste 0 -- -- 90
2020-10-04 08:00:00 16.1 2 Sudoeste 8 Sudoeste 0 -- -- 90
2020-10-04 07:00:00 16.2 0 Calma 6 Sur 0 -- -- 89
2020-10-04 06:00:00 16.4 2 Sur 6 Sur 0 -- -- 89
2020-10-04 05:00:00 16.5 0 Calma 5 Sur 0 -- -- 91
2020-10-04 04:00:00 17 0 Calma 6 Sur 0 -- -- 93
2020-10-04 03:00:00 17 3 Oeste 6 Sur 0 -- -- 93
2020-10-04 02:00:00 17.1 3 Sur 5 Sudoeste 0 -- -- 91
2020-10-04 01:00:00 17.3 2 Sur 10 Sudoeste 0 -- -- 91
2020-10-04 00:00:00 17.7 4 Oeste 12 Sudoeste 0 -- -- 90
2020-10-03 23:00:00 17.6 3 Oeste 9 Oeste 0 -- -- 90
2020-10-03 22:00:00 17.7 0 Calma 6 Oeste 0 -- -- 86
2020-10-03 21:00:00 18.4 2 Sudoeste 9 Sur 0 -- -- 82
2020-10-03 20:00:00 19.8 5 Oeste 11 Sur 0 -- -- 76
2020-10-03 19:00:00 22.1 9 Oeste 21 Oeste 0 -- -- 67
2020-10-03 18:00:00 23.3 12 Oeste 24 Oeste 0 -- -- 63
2020-10-03 17:00:00 23.4 13 Oeste 23 Oeste 0 -- -- 62
2020-10-03 16:00:00 22.5 10 Oeste 23 Sudoeste 0 -- -- 63
2020-10-03 15:00:00 23.1 9 Sudoeste 20 Sur 0 -- -- 62
2020-10-03 14:00:00 22.3 12 Sudoeste 20 Oeste 0 -- -- 65
2020-10-03 13:00:00 20.7 10 Sudoeste 21 Sur 0 -- -- 72
2020-10-03 12:00:00 21.1 7 Oeste 15 Oeste 0 -- -- 68
2020-10-03 11:00:00 19.6 4 Sudoeste 15 Sudeste 0 -- -- 72
2020-10-03 10:00:00 16.7 5 Este 17 Este 0 -- -- 85
2020-10-03 09:00:00 15.4 6 Este 10 Este 0 -- -- 88
2020-10-03 08:00:00 15.2 9 Este 15 Nordeste 0 -- -- 87
2020-10-03 07:00:00 15 3 Nordeste 21 Este 0 -- -- 87
2020-10-03 06:00:00 14.9 9 Este 15 Este 0 -- -- 93
2020-10-03 05:00:00 15 0 Calma 11 Este 0 -- -- 93
2020-10-03 04:00:00 15.1 3 Este 11 Este 0 -- -- 87
2020-10-03 03:00:00 15.5 0 Calma 10 Nordeste 0 -- -- 89
2020-10-03 02:00:00 15.8 10 Este 17 Nordeste 0 -- -- 88
2020-10-03 01:00:00 15.9 10 Nordeste 13 Nordeste 0 -- -- 90
2020-10-03 00:00:00 16.3 5 Nordeste 13 Nordeste 0 -- -- 86
2020-10-02 23:00:00 16.5 8 Este 13 Este 0 -- -- 89
2020-10-02 22:00:00 16.8 6 Sudeste 13 Sur 0 -- -- 88
2020-10-02 21:00:00 17.7 5 Oeste 19 Oeste 0 -- -- 81
2020-10-02 20:00:00 18.5 5 Sudoeste 16 Sur 0 -- -- 79
2020-10-02 19:00:00 20.2 12 Sur 21 Sur 0 -- -- 69
2020-10-02 18:00:00 23.6 13 Oeste 24 Oeste 0 -- -- 56
2020-10-02 17:00:00 24.3 13 Oeste 24 Oeste 0 -- -- 56
2020-10-02 16:00:00 24.9 12 Oeste 22 Oeste 0 -- -- 54
2020-10-02 15:00:00 23.7 10 Oeste 25 Oeste 0 -- -- 58
2020-10-02 14:00:00 23.1 13 Oeste 23 Oeste 0 -- -- 61
2020-10-02 13:00:00 21.8 9 Oeste 17 Oeste 0 -- -- 66
2020-10-02 12:00:00 19.3 9 Sudoeste 15 Sur 0 -- -- 77
2020-10-02 11:00:00 18.1 5 Sudoeste 11 Sudoeste 0 -- -- 79
2020-10-02 10:00:00 15.7 0 Calma 5 Sur 0 -- -- 91
2020-10-02 09:00:00 15.1 0 Calma 5 Nordeste 0 -- -- 91
2020-10-02 08:00:00 14.9 0 Calma 4 Sudoeste 0 -- -- 90
2020-10-02 07:00:00 15.2 0 Calma 5 Este 0 -- -- 89
2020-10-02 06:00:00 15.3 2 Oeste 8 Sur 0 -- -- 90
2020-10-02 05:00:00 15.7 6 Sur 8 Sur 0 -- -- 88
2020-10-02 04:00:00 16.2 3 Sur 7 Sur 0 -- -- 90
2020-10-02 03:00:00 16 0 Calma 5 Norte 0 -- -- 88
2020-10-02 02:00:00 16.9 5 Oeste 10 Oeste 0 -- -- 90
2020-10-02 01:00:00 17.1 0 Calma 6 Sur 0 -- -- 86
2020-10-02 00:00:00 16.8 6 Sur 9 Sur 0 -- -- 85
2020-10-01 23:00:00 17.3 2 Oeste 9 Sudoeste 0 -- -- 82
2020-10-01 22:00:00 17.7 4 Oeste 8 Oeste 0 -- -- 82
2020-10-01 21:00:00 18.1 3 Noroeste 10 Sur 0 -- -- 81
2020-10-01 20:00:00 19.2 5 Sudoeste 21 Oeste 0 -- -- 78
2020-10-01 19:00:00 22.5 12 Oeste 24 Oeste 0 -- -- 62
2020-10-01 18:00:00 23.7 14 Oeste 23 Oeste 0 -- -- 59
2020-10-01 17:00:00 24.3 10 Oeste 21 Oeste 0 -- -- 58
2020-10-01 16:00:00 24.4 11 Oeste 23 Oeste 0 -- -- 60
2020-10-01 15:00:00 23.4 12 Oeste 24 Oeste 0 -- -- 62
2020-10-01 14:00:00 22.9 13 Oeste 21 Sudoeste 0 -- -- 66
2020-10-01 13:00:00 21.2 8 Oeste 19 Sudoeste 0 -- -- 71
2020-10-01 12:00:00 21.1 6 Oeste 12 Sudoeste 0 -- -- 72
2020-10-01 11:00:00 18.2 3 Oeste 7 Sudoeste 0 -- -- 79
2020-10-01 10:00:00 16 0 Calma 4 Oeste 0 -- -- 91
2020-10-01 09:00:00 15.6 3 Este 13 Nordeste 0 -- -- 90
2020-10-01 08:00:00 15.5 5 Este 10 Este 0 -- -- 91
2020-10-01 07:00:00 15.6 2 Este 6 Sur 0 -- -- 91
2020-10-01 06:00:00 15.9 0 Calma 10 Noroeste 0 -- -- 91
2020-10-01 05:00:00 16.5 3 Oeste 5 Sudoeste 0 -- -- 91
2020-10-01 04:00:00 16.4 0 Calma 7 Sudeste 0 -- -- 92
2020-10-01 03:00:00 16.2 3 Nordeste 7 Nordeste 0 -- -- 91
2020-10-01 02:00:00 16.5 0 Calma 6 Oeste 0 -- -- 91
2020-10-01 01:00:00 16.8 0 Calma 4 Sudoeste 0 -- -- 88
2020-10-01 00:00:00 17.1 0 Calma 9 Este 0 -- -- 88